地図

経路データ

SID SEASON NUMBER BASIN SUBBASIN NAME ISO_TIME NATURE LAT LON WMO_WIND WMO_PRES WMO_AGENCY TRACK_TYPE DIST2LAND LANDFALL IFLAG USA_AGENCY USA_ATCF_ID USA_LAT USA_LON USA_RECORD USA_STATUS USA_WIND USA_PRES USA_SSHS USA_R34_NE USA_R34_SE USA_R34_SW USA_R34_NW USA_R50_NE USA_R50_SE USA_R50_SW USA_R50_NW USA_R64_NE USA_R64_SE USA_R64_SW USA_R64_NW USA_POCI USA_ROCI USA_RMW USA_EYE TOKYO_LAT TOKYO_LON TOKYO_GRADE TOKYO_WIND TOKYO_PRES TOKYO_R50_DIR TOKYO_R50_LONG TOKYO_R50_SHORT TOKYO_R30_DIR TOKYO_R30_LONG TOKYO_R30_SHORT TOKYO_LAND CMA_LAT CMA_LON CMA_CAT CMA_WIND CMA_PRES HKO_LAT HKO_LON HKO_CAT HKO_WIND HKO_PRES NEWDELHI_LAT NEWDELHI_LON NEWDELHI_GRADE NEWDELHI_WIND NEWDELHI_PRES NEWDELHI_CI NEWDELHI_DP NEWDELHI_POCI REUNION_LAT REUNION_LON REUNION_TYPE REUNION_WIND REUNION_PRES REUNION_TNUM REUNION_CI REUNION_RMW REUNION_R34_NE REUNION_R34_SE REUNION_R34_SW REUNION_R34_NW REUNION_R50_NE REUNION_R50_SE REUNION_R50_SW REUNION_R50_NW REUNION_R64_NE REUNION_R64_SE REUNION_R64_SW REUNION_R64_NW BOM_LAT BOM_LON BOM_TYPE BOM_WIND BOM_PRES BOM_TNUM BOM_CI BOM_RMW BOM_R34_NE BOM_R34_SE BOM_R34_SW BOM_R34_NW BOM_R50_NE BOM_R50_SE BOM_R50_SW BOM_R50_NW BOM_R64_NE BOM_R64_SE BOM_R64_SW BOM_R64_NW BOM_ROCI BOM_POCI BOM_EYE BOM_POS_METHOD BOM_PRES_METHOD NADI_LAT NADI_LON NADI_CAT NADI_WIND NADI_PRES WELLINGTON_LAT WELLINGTON_LON WELLINGTON_WIND WELLINGTON_PRES DS824_LAT DS824_LON DS824_STAGE DS824_WIND DS824_PRES TD9636_LAT TD9636_LON TD9636_STAGE TD9636_WIND TD9636_PRES TD9635_LAT TD9635_LON TD9635_WIND TD9635_PRES TD9635_ROCI NEUMANN_LAT NEUMANN_LON NEUMANN_CLASS NEUMANN_WIND NEUMANN_PRES MLC_LAT MLC_LON MLC_CLASS MLC_WIND MLC_PRES USA_GUST BOM_GUST BOM_GUST_PER REUNION_GUST REUNION_GUST_PER USA_SEAHGT USA_SEARAD_NE USA_SEARAD_SE USA_SEARAD_SW USA_SEARAD_NW STORM_SPEED STORM_DIR
1862166N32284 1862 14 NA NA NOT_NAMED 1862-06-15 00:00:00 TS 32.0000 -75.6000 50 hurdat_atl main 307 293 O_____________ hurdat_atl AL011862 32.0000 -75.6000 TS 50 0 6 28
1862166N32284 1862 14 NA NA NOT_NAMED 1862-06-15 03:00:00 TS 32.2451 -75.4477 main 296 269 P_____________ AL011862 32.2451 -75.4477 TS 50 0 6 27
1862166N32284 1862 14 NA NA NOT_NAMED 1862-06-15 06:00:00 TS 32.5000 -75.3000 50 hurdat_atl main 269 243 O_____________ hurdat_atl AL011862 32.5000 -75.3000 TS 50 0 6 25
1862166N32284 1862 14 NA NA NOT_NAMED 1862-06-15 09:00:00 TS 32.7649 -75.1574 main 243 234 P_____________ AL011862 32.7649 -75.1574 TS 50 0 6 27
1862166N32284 1862 14 NA NA NOT_NAMED 1862-06-15 12:00:00 TS 33.0000 -75.0000 50 hurdat_atl main 234 229 O_____________ hurdat_atl AL011862 33.0000 -75.0000 TS 50 0 5 37
1862166N32284 1862 14 NA NA NOT_NAMED 1862-06-15 15:00:00 TS 33.1726 -74.7925 main 229 227 P_____________ AL011862 33.1726 -74.7925 TS 50 0 4 48
1862166N32284 1862 14 NA NA NOT_NAMED 1862-06-15 18:00:00 TS 33.3000 -74.6000 50 hurdat_atl main 234 234 O_____________ hurdat_atl AL011862 33.3000 -74.6000 TS 50 0 3 49
1862166N32284 1862 14 NA NA NOT_NAMED 1862-06-15 21:00:00 TS 33.3924 -74.4923 main 234 234 P_____________ AL011862 33.3924 -74.4923 TS 50 0 3 40
1862166N32284 1862 14 NA NA NOT_NAMED 1862-06-16 00:00:00 TS 33.5000 -74.4000 50 hurdat_atl main 234 226 O_____________ hurdat_atl AL011862 33.5000 -74.4000 TS 50 0 4 33
1862166N32284 1862 14 NA NA NOT_NAMED 1862-06-16 03:00:00 TS 33.6925 -74.2576 main 226 226 P_____________ AL011862 33.6925 -74.2576 TS 50 0 5 32
1862166N32284 1862 14 NA NA NOT_NAMED 1862-06-16 06:00:00 TS 33.9000 -74.1000 50 hurdat_atl main 230 224 O_____________ hurdat_atl AL011862 33.9000 -74.1000 TS 50 0 4 35
1862166N32284 1862 14 NA NA NOT_NAMED 1862-06-16 09:00:00 TS 34.0424 -73.9647 main 233 227 P_____________ AL011862 34.0424 -73.9647 TS 50 0 4 39
1862166N32284 1862 14 NA NA NOT_NAMED 1862-06-16 12:00:00 TS 34.2000 -73.8000 50 hurdat_atl main 232 232 O_____________ hurdat_atl AL011862 34.2000 -73.8000 TS 50 0 5 39
1862166N32284 1862 14 NA NA NOT_NAMED 1862-06-16 15:00:00 TS 34.4501 -73.5578 main 225 225 P_____________ AL011862 34.4501 -73.5578 TS 50 0 6 40
1862166N32284 1862 14 NA NA NOT_NAMED 1862-06-16 18:00:00 TS 34.7000 -73.3000 50 hurdat_atl main 233 233 O_____________ hurdat_atl AL011862 34.7000 -73.3000 TS 50 0 6 44
1862166N32284 1862 14 NA NA NOT_NAMED 1862-06-16 21:00:00 TS 34.8499 -73.0922 main 244 239 P_____________ AL011862 34.8499 -73.0922 TS 50 0 4 48
1862166N32284 1862 14 NA NA NOT_NAMED 1862-06-17 00:00:00 TS 35.0000 -72.9000 50 hurdat_atl main 251 251 O_____________ hurdat_atl AL011862 35.0000 -72.9000 TS 50 0 5 39
1862166N32284 1862 14 NA NA NOT_NAMED 1862-06-17 03:00:00 TS 35.2349 -72.7074 main 261 258 P_____________ AL011862 35.2349 -72.7074 TS 50 0 6 33
1862166N32284 1862 14 NA NA NOT_NAMED 1862-06-17 06:00:00 TS 35.5000 -72.5000 50 hurdat_atl main 272 271 O_____________ hurdat_atl AL011862 35.5000 -72.5000 TS 50 0 6 34
1862166N32284 1862 14 NA NA NOT_NAMED 1862-06-17 09:00:00 TS 35.7499 -72.2723 main 288 287 P_____________ AL011862 35.7499 -72.2723 TS 50 0 6 39
1862166N32284 1862 14 NA NA NOT_NAMED 1862-06-17 12:00:00 TS 36.0000 -72.0000 50 hurdat_atl main 315 315 O_____________ hurdat_atl AL011862 36.0000 -72.0000 TS 50 0 7 44
1862166N32284 1862 14 NA NA NOT_NAMED 1862-06-17 15:00:00 TS 36.2503 -71.6680 main 345 345 P_____________ AL011862 36.2503 -71.6680 TS 50 0 8 49
1862166N32284 1862 14 NA NA NOT_NAMED 1862-06-17 18:00:00 TS 36.5000 -71.3000 50 hurdat_atl main 384 O_____________ hurdat_atl AL011862 36.5000 -71.3000 TS 50 0 8 50

IBTrACS Databaseについて

本データベースは、米国NOAAが公開する1842年以降の世界の熱帯低気圧のベストトラックデータアーカイブInternational Best Track Archive for Climate Stewardship (IBTrACS)を、ウェブで閲覧しやすい形式に変換したものです。

最終更新日:2021-10-08